Time;durP1;ratioP1;P1;durP2;ratioP2;P2;SDS_P1;SDS_P2;PMS_P1;PMS_P2;Temp;Humidity;BMP_temperature;BMP_pressure;BME280_temperature;BME280_humidity;BME280_pressure;Samples;Min_cycle;Max_cycle;Signal;HPM_P1;HPM_P2
2021/06/24 00:03:01;;;;;;;6.40;5.80;;;26.10;55.70;;;;;;5314722;23;20496;-81
2021/06/24 00:05:30;;;;;;;6.00;4.70;;;26.00;55.80;;;;;;4944459;29;20402;-82
2021/06/24 00:07:58;;;;;;;6.13;5.13;;;26.00;55.70;;;;;;4943222;29;20403;-81
2021/06/24 00:10:28;;;;;;;5.77;4.97;;;26.00;55.70;;;;;;4961021;29;20446;-81
2021/06/24 00:13:04;;;;;;;5.60;5.10;;;26.00;55.70;;;;;;4960754;29;20419;-81
2021/06/24 00:15:31;;;;;;;5.77;5.27;;;26.00;55.70;;;;;;4944248;29;20411;-84
2021/06/24 00:17:57;;;;;;;5.27;4.80;;;26.00;55.70;;;;;;4941730;29;20439;-81
2021/06/24 00:20:23;;;;;;;5.20;4.77;;;26.00;55.70;;;;;;4955837;29;20415;-81
2021/06/24 00:22:54;;;;;;;6.37;5.87;;;26.00;55.80;;;;;;4939426;29;20426;-81
2021/06/24 00:25:21;;;;;;;5.90;4.73;;;26.00;55.70;;;;;;4923457;29;20427;-81
2021/06/24 00:27:48;;;;;;;5.40;4.63;;;26.00;55.70;;;;;;4939346;29;20419;-81
2021/06/24 00:30:18;;;;;;;5.50;4.70;;;26.00;55.70;;;;;;4940389;29;20459;-81
2021/06/24 00:32:47;;;;;;;7.80;5.10;;;26.00;55.60;;;;;;4955568;29;20505;-81
2021/06/24 00:35:14;;;;;;;5.37;4.87;;;26.10;55.70;;;;;;4938902;29;20430;-81
2021/06/24 00:37:45;;;;;;;6.40;4.77;;;26.10;55.60;;;;;;4955066;29;20427;-81
2021/06/24 00:40:12;;;;;;;5.00;4.60;;;26.10;55.50;;;;;;4939689;29;20414;-81
2021/06/24 00:42:44;;;;;;;5.27;4.80;;;26.00;55.50;;;;;;4939267;29;20434;-81
2021/06/24 00:45:14;;;;;;;5.53;5.03;;;26.10;55.60;;;;;;4923415;29;20419;-81
2021/06/24 00:47:41;;;;;;;6.00;5.00;;;26.10;55.50;;;;;;4957530;29;20413;-81
2021/06/24 00:50:11;;;;;;;5.20;4.80;;;26.00;55.40;;;;;;4957452;29;20455;-82
2021/06/24 00:52:40;;;;;;;5.27;4.80;;;26.10;55.50;;;;;;4944918;29;20406;-81
2021/06/24 00:55:10;;;;;;;5.40;5.00;;;26.00;55.50;;;;;;4961820;29;20446;-81
2021/06/24 00:57:38;;;;;;;5.13;4.70;;;26.10;55.40;;;;;;4928693;29;20431;-81
2021/06/24 01:00:07;;;;;;;5.83;5.20;;;26.10;55.40;;;;;;4943096;29;20486;-81
2021/06/24 01:02:34;;;;;;;5.87;5.00;;;26.10;55.40;;;;;;4942209;29;20422;-81
2021/06/24 01:05:01;;;;;;;5.00;4.57;;;26.10;55.90;;;;;;4942637;29;20423;-81
2021/06/24 01:07:28;;;;;;;4.80;4.40;;;26.10;55.30;;;;;;4942755;29;20411;-82
2021/06/24 01:09:55;;;;;;;4.77;4.37;;;26.10;55.20;;;;;;4943123;29;20415;-81
2021/06/24 01:12:22;;;;;;;5.70;5.20;;;26.10;55.10;;;;;;4942391;29;20518;-81
2021/06/24 01:14:56;;;;;;;5.30;4.70;;;26.20;55.20;;;;;;4942823;29;20443;-81
2021/06/24 01:17:26;;;;;;;5.70;5.30;;;26.20;55.10;;;;;;4943992;29;20520;-82
2021/06/24 01:19:55;;;;;;;4.97;4.47;;;26.20;55.10;;;;;;4927345;29;20398;-81
2021/06/24 01:22:22;;;;;;;5.30;4.90;;;26.20;55.10;;;;;;4943630;29;20443;-80
2021/06/24 01:24:49;;;;;;;4.97;4.57;;;26.10;54.90;;;;;;4959372;29;20410;-80
2021/06/24 01:27:21;;;;;;;6.00;5.50;;;26.20;55.10;;;;;;4942417;29;20449;-82
2021/06/24 01:29:51;;;;;;;6.00;5.50;;;26.20;55.00;;;;;;4944714;29;20411;-81
2021/06/24 01:32:26;;;;;;;4.90;4.50;;;26.10;55.00;;;;;;4961069;29;20411;-81
2021/06/24 01:35:00;;;;;;;4.73;4.33;;;26.20;55.00;;;;;;4960882;29;20454;-81
2021/06/24 01:37:29;;;;;;;5.67;5.07;;;26.20;55.00;;;;;;4925718;29;20458;-81
2021/06/24 01:40:04;;;;;;;5.17;4.67;;;26.20;54.90;;;;;;4907956;29;20432;-81
2021/06/24 01:42:48;;;;;;;5.50;5.00;;;26.20;54.90;;;;;;4938621;29;20407;-81
2021/06/24 01:45:18;;;;;;;6.00;4.60;;;26.20;54.80;;;;;;4951514;29;20568;-81
2021/06/24 01:47:49;;;;;;;5.50;5.00;;;26.20;54.80;;;;;;4933787;29;20443;-81
2021/06/24 01:50:25;;;;;;;4.70;4.30;;;26.20;54.80;;;;;;4939506;29;20466;-81
2021/06/24 01:53:04;;;;;;;5.13;4.70;;;26.20;54.80;;;;;;4944209;29;20411;-81
2021/06/24 01:55:46;;;;;;;5.00;4.60;;;26.10;54.80;;;;;;4958758;29;20423;-81
2021/06/24 02:04:13;;;;;;;5.20;4.70;;;26.20;54.90;;;;;;4941263;29;20471;-81
2021/06/24 02:06:46;;;;;;;4.80;4.40;;;26.10;54.80;;;;;;4943583;29;20421;-81
2021/06/24 02:09:14;;;;;;;4.67;4.37;;;26.10;54.90;;;;;;4869027;29;20425;-81
2021/06/24 02:11:47;;;;;;;4.90;4.50;;;26.00;54.90;;;;;;4899767;29;20480;-81
2021/06/24 02:14:45;;;;;;;5.57;5.07;;;26.00;54.90;;;;;;4889524;29;20469;-81
2021/06/24 02:17:36;;;;;;;4.67;4.27;;;26.00;54.80;;;;;;4890400;29;20464;-81
2021/06/24 02:20:22;;;;;;;4.53;4.10;;;26.00;55.00;;;;;;4901631;29;20414;-81
2021/06/24 02:23:02;;;;;;;4.90;4.50;;;26.00;54.90;;;;;;4887448;29;20425;-81
2021/06/24 02:29:18;;;;;;;4.87;4.47;;;25.90;54.90;;;;;;4902711;29;20470;-81
2021/06/24 02:32:06;;;;;;;5.83;3.90;;;25.90;55.00;;;;;;4900966;29;20485;-81
2021/06/24 02:34:47;;;;;;;4.93;4.23;;;25.90;55.00;;;;;;4901998;29;20422;-80
2021/06/24 02:44:09;;;;;;;4.93;4.53;;;25.90;55.40;;;;;;4899476;29;20410;-80
2021/06/24 02:46:41;;;;;;;4.83;4.33;;;25.90;55.00;;;;;;4989864;23;20485;-85
2021/06/24 02:49:07;;;;;;;4.53;4.17;;;25.90;55.00;;;;;;4955620;29;20453;-82
2021/06/24 02:51:51;;;;;;;4.13;3.73;;;25.80;55.00;;;;;;4946862;29;20482;-81
2021/06/24 02:54:18;;;;;;;4.90;4.43;;;25.90;55.00;;;;;;4967080;28;20458;-82
2021/06/24 02:59:25;;;;;;;4.90;4.50;;;25.90;55.10;;;;;;5993498;23;20449;-82
2021/06/24 03:14:48;;;;;;;7.63;4.60;;;25.80;55.00;;;;;;5995442;23;20402;-83
2021/06/24 03:25:06;;;;;;;4.50;4.10;;;25.90;55.00;;;;;;5475666;23;20494;-84
2021/06/24 03:27:32;;;;;;;4.90;4.47;;;25.80;55.00;;;;;;4956846;29;20424;-83
2021/06/24 03:30:00;;;;;;;5.50;5.00;;;25.80;55.00;;;;;;4926058;29;20446;-84
2021/06/24 03:37:40;;;;;;;5.57;4.77;;;25.80;55.10;;;;;;5143011;23;20506;-83
2021/06/24 04:13:51;;;;;;;5.20;4.80;;;25.70;55.90;;;;;;5350373;23;20474;-81
2021/06/24 04:37:00;;;;;;;5.60;5.07;;;25.60;55.70;;;;;;5174755;23;20514;-82
2021/06/24 04:39:28;;;;;;;8.93;5.80;;;25.60;55.70;;;;;;4957322;29;20498;-81
2021/06/24 04:42:01;;;;;;;5.77;5.10;;;25.70;55.80;;;;;;4956872;29;20463;-81
2021/06/24 04:44:32;;;;;;;6.13;5.60;;;25.70;55.80;;;;;;4957035;29;20391;-81
2021/06/24 04:47:01;;;;;;;6.27;5.67;;;25.70;55.70;;;;;;4915319;29;20438;-81
2021/06/24 04:49:27;;;;;;;5.60;5.20;;;25.70;55.70;;;;;;4954890;29;20410;-81
2021/06/24 04:51:53;;;;;;;8.93;6.20;;;25.70;55.80;;;;;;4940469;29;20512;-81
2021/06/24 04:54:19;;;;;;;5.43;4.97;;;25.70;55.80;;;;;;4941076;29;20159;-82
2021/06/24 04:56:50;;;;;;;6.10;5.60;;;25.70;55.70;;;;;;4940821;29;20272;-81
2021/06/24 04:59:18;;;;;;;5.97;5.47;;;25.70;55.70;;;;;;4957623;29;20167;-81
2021/06/24 05:01:51;;;;;;;6.50;6.00;;;25.70;55.90;;;;;;4957819;29;20478;-81
2021/06/24 05:04:20;;;;;;;6.03;5.53;;;25.70;55.70;;;;;;4941730;29;20490;-81
2021/06/24 05:06:52;;;;;;;6.20;5.10;;;25.70;55.80;;;;;;5404748;23;20449;-83
2021/06/24 05:09:26;;;;;;;7.00;5.30;;;25.70;55.70;;;;;;4940681;29;20463;-82
2021/06/24 05:12:08;;;;;;;7.70;5.90;;;25.70;55.70;;;;;;4942118;29;20467;-81
2021/06/24 05:14:45;;;;;;;6.27;5.67;;;25.70;55.70;;;;;;4958903;29;20410;-80
2021/06/24 05:20:47;;;;;;;6.20;4.90;;;25.70;55.80;;;;;;4960219;29;20386;-81
2021/06/24 05:26:46;;;;;;;5.33;4.83;;;25.80;56.00;;;;;;4959823;29;20415;-81
2021/06/24 05:33:08;;;;;;;5.40;5.00;;;25.70;55.90;;;;;;4920914;29;20646;-82
2021/06/24 05:49:52;;;;;;;6.57;5.40;;;25.60;56.20;;;;;;4923682;29;20400;-82
2021/06/24 05:53:05;;;;;;;5.20;4.80;;;25.70;56.20;;;;;;4921861;29;20476;-81
2021/06/24 05:59:14;;;;;;;6.97;5.10;;;25.60;56.30;;;;;;4925064;29;20403;-82
2021/06/24 06:01:43;;;;;;;5.43;4.60;;;25.50;56.30;;;;;;4942224;29;20435;-82
2021/06/24 06:04:09;;;;;;;8.43;5.23;;;25.50;56.40;;;;;;4940874;29;20396;-82
2021/06/24 06:06:38;;;;;;;5.73;5.10;;;25.50;56.40;;;;;;4940881;29;20436;-83
2021/06/24 06:09:28;;;;;;;5.73;5.23;;;25.60;56.30;;;;;;4941051;29;20456;-82
2021/06/24 06:12:02;;;;;;;8.73;5.03;;;25.60;56.20;;;;;;5185958;23;20550;-83
2021/06/24 06:14:27;;;;;;;6.20;5.27;;;25.70;56.20;;;;;;4958424;29;20438;-83
2021/06/24 06:17:10;;;;;;;5.80;5.17;;;25.80;56.00;;;;;;4944040;29;20431;-82
2021/06/24 06:19:38;;;;;;;5.63;5.17;;;25.80;55.80;;;;;;4956686;29;20175;-82
2021/06/24 06:22:07;;;;;;;5.10;4.60;;;25.90;55.70;;;;;;4938339;29;20526;-82
2021/06/24 06:24:39;;;;;;;6.60;5.70;;;25.90;55.50;;;;;;4956085;29;20419;-82
2021/06/24 06:27:11;;;;;;;5.33;4.93;;;26.00;55.50;;;;;;4938487;29;20528;-82
2021/06/24 06:29:42;;;;;;;5.67;5.03;;;26.10;55.40;;;;;;4955897;29;20415;-84
2021/06/24 06:32:08;;;;;;;4.90;4.50;;;26.10;55.40;;;;;;4940151;29;20458;-82
2021/06/24 06:35:00;;;;;;;4.67;4.23;;;26.20;55.40;;;;;;4956907;29;20419;-82
2021/06/24 06:37:28;;;;;;;5.37;4.87;;;26.30;55.30;;;;;;4935311;29;20426;-83
2021/06/24 06:39:54;;;;;;;5.27;4.77;;;26.30;55.30;;;;;;4939762;29;20421;-82
2021/06/24 06:42:20;;;;;;;4.70;4.40;;;26.30;55.20;;;;;;4956187;29;20472;-82
2021/06/24 06:44:46;;;;;;;5.10;4.63;;;26.30;55.10;;;;;;4940440;29;20226;-82
2021/06/24 06:47:12;;;;;;;5.40;5.00;;;26.40;55.10;;;;;;4940093;29;20195;-83
2021/06/24 06:49:41;;;;;;;5.37;4.97;;;26.40;55.10;;;;;;4939787;29;20175;-82
2021/06/24 06:52:07;;;;;;;5.30;4.80;;;26.40;55.10;;;;;;4956742;29;20482;-82
2021/06/24 06:54:32;;;;;;;5.17;4.70;;;26.40;55.00;;;;;;4939433;29;20425;-82
2021/06/24 06:56:58;;;;;;;7.57;5.03;;;26.50;55.00;;;;;;4939834;29;20430;-82
2021/06/24 06:59:24;;;;;;;4.63;4.23;;;26.50;54.90;;;;;;4939414;29;20183;-83
2021/06/24 07:01:50;;;;;;;5.10;4.60;;;26.50;54.90;;;;;;4937759;29;20427;-83
2021/06/24 07:04:16;;;;;;;4.80;4.40;;;26.50;54.80;;;;;;4939385;29;20446;-83
2021/06/24 07:06:50;;;;;;;4.93;4.47;;;26.50;54.80;;;;;;4939605;29;20194;-83
2021/06/24 07:09:19;;;;;;;5.33;4.83;;;26.60;54.90;;;;;;4938779;29;20171;-83
2021/06/24 07:11:45;;;;;;;5.43;4.93;;;26.60;54.90;;;;;;4939395;29;20466;-82
2021/06/24 07:14:14;;;;;;;5.10;4.70;;;26.60;54.90;;;;;;4939308;29;20439;-82
2021/06/24 07:16:40;;;;;;;4.97;4.57;;;26.60;54.80;;;;;;4939066;29;20258;-82
2021/06/24 07:19:09;;;;;;;5.37;4.80;;;26.60;54.80;;;;;;4923852;29;20435;-83
2021/06/24 07:21:47;;;;;;;5.30;4.80;;;26.70;54.80;;;;;;4924380;29;20179;-82
2021/06/24 07:24:14;;;;;;;5.13;4.73;;;26.70;54.80;;;;;;4940332;29;20450;-81
2021/06/24 07:27:12;;;;;;;5.40;4.90;;;26.70;54.80;;;;;;4956306;29;20411;-82
2021/06/24 07:32:30;;;;;;;4.50;4.10;;;26.70;54.80;;;;;;4946252;29;20504;-83
2021/06/24 07:34:56;;;;;;;5.03;4.63;;;26.70;54.80;;;;;;4939532;29;20427;-82
2021/06/24 07:37:23;;;;;;;5.77;5.27;;;26.70;54.80;;;;;;4956491;29;20491;-82
2021/06/24 07:39:51;;;;;;;5.93;5.40;;;26.70;55.00;;;;;;4940092;29;20427;-83
2021/06/24 07:42:20;;;;;;;6.67;6.00;;;26.70;55.10;;;;;;4956558;29;20520;-82
2021/06/24 07:44:52;;;;;;;5.70;5.10;;;26.70;54.90;;;;;;4939871;29;20425;-82
2021/06/24 07:47:18;;;;;;;5.40;4.90;;;26.80;54.90;;;;;;4940654;29;20499;-83
2021/06/24 07:49:50;;;;;;;5.20;4.70;;;26.80;55.00;;;;;;4957111;29;20456;-82
2021/06/24 07:52:24;;;;;;;5.00;4.13;;;26.80;54.90;;;;;;4955610;29;20399;-83
2021/06/24 07:54:53;;;;;;;6.00;5.40;;;26.80;54.80;;;;;;4938645;29;20484;-83
2021/06/24 07:57:28;;;;;;;6.00;4.90;;;26.80;55.10;;;;;;4956597;29;20423;-83
2021/06/24 08:00:00;;;;;;;7.63;4.80;;;26.90;55.10;;;;;;4940196;29;20439;-81
2021/06/24 08:02:29;;;;;;;6.23;4.50;;;26.90;55.30;;;;;;4939497;29;20430;-82
2021/06/24 08:05:07;;;;;;;5.23;4.67;;;26.90;55.30;;;;;;4942997;29;20463;-82
2021/06/24 08:11:05;;;;;;;5.37;4.80;;;26.90;55.30;;;;;;4902812;29;20475;-82
2021/06/24 08:13:31;;;;;;;6.73;4.70;;;26.90;55.30;;;;;;4877794;29;20452;-82
2021/06/24 08:15:59;;;;;;;4.40;4.00;;;26.90;55.30;;;;;;4893229;29;20437;-83
2021/06/24 08:18:26;;;;;;;6.07;4.80;;;26.90;55.20;;;;;;4877701;29;20229;-83
2021/06/24 08:20:53;;;;;;;5.83;4.47;;;27.00;55.10;;;;;;4876883;29;20428;-83
2021/06/24 08:23:19;;;;;;;4.70;4.37;;;27.00;55.20;;;;;;4876950;29;20429;-83
2021/06/24 08:25:46;;;;;;;5.00;4.53;;;27.00;55.20;;;;;;4878170;29;20609;-83
2021/06/24 08:31:33;;;;;;;4.00;3.70;;;27.10;55.20;;;;;;4893379;29;20456;-82
2021/06/24 08:33:59;;;;;;;4.33;3.93;;;27.00;55.00;;;;;;4878458;29;20441;-84
2021/06/24 08:36:25;;;;;;;6.43;5.20;;;27.00;55.10;;;;;;4877656;29;20432;-82
2021/06/24 08:38:59;;;;;;;4.80;4.40;;;27.10;55.20;;;;;;4877621;29;20571;-83
2021/06/24 08:41:28;;;;;;;4.10;3.80;;;27.10;55.20;;;;;;4877981;29;20434;-83
2021/06/24 08:43:54;;;;;;;5.00;4.53;;;27.00;55.00;;;;;;4877349;29;20532;-83
2021/06/24 08:46:27;;;;;;;4.80;3.20;;;27.10;55.20;;;;;;4877716;29;20812;-84
2021/06/24 08:48:59;;;;;;;4.37;3.53;;;27.10;55.20;;;;;;4933783;29;20435;-83
2021/06/24 08:51:42;;;;;;;4.47;4.07;;;27.10;55.20;;;;;;4951396;29;20530;-83
2021/06/24 08:54:12;;;;;;;4.07;3.67;;;27.10;55.10;;;;;;4952962;29;20410;-82
2021/06/24 08:56:40;;;;;;;4.53;4.13;;;27.10;55.20;;;;;;4936325;29;20491;-83
2021/06/24 08:59:08;;;;;;;3.80;3.50;;;27.10;55.10;;;;;;4952721;29;20418;-82
2021/06/24 09:05:04;;;;;;;4.10;3.70;;;27.20;55.20;;;;;;4914079;29;20421;-82
2021/06/24 09:07:31;;;;;;;4.30;3.90;;;27.10;55.10;;;;;;4899066;29;20505;-83
2021/06/24 09:10:00;;;;;;;6.40;3.50;;;27.20;55.20;;;;;;4913349;29;20445;-82
2021/06/24 09:12:26;;;;;;;3.87;3.53;;;27.20;55.10;;;;;;4914801;29;20409;-82
2021/06/24 09:15:01;;;;;;;5.10;3.73;;;27.20;55.10;;;;;;4917907;29;20910;-83
2021/06/24 09:17:38;;;;;;;3.70;3.30;;;27.20;55.10;;;;;;4902036;29;20518;-82
2021/06/24 09:20:25;;;;;;;3.60;3.30;;;27.30;55.20;;;;;;4917422;29;20428;-82
2021/06/24 09:23:09;;;;;;;5.13;3.20;;;27.30;55.10;;;;;;4889409;29;20416;-82
2021/06/24 09:25:45;;;;;;;3.57;3.20;;;27.30;55.10;;;;;;4902333;29;20436;-82
2021/06/24 09:28:14;;;;;;;3.47;3.17;;;27.20;55.10;;;;;;4917409;29;20420;-82
2021/06/24 09:30:46;;;;;;;3.73;3.43;;;27.30;55.10;;;;;;4917947;29;20468;-82
2021/06/24 09:33:17;;;;;;;3.87;3.57;;;27.30;55.10;;;;;;4948164;29;20905;-81
2021/06/24 09:36:05;;;;;;;3.50;3.20;;;27.30;55.60;;;;;;4940177;29;20426;-82
2021/06/24 09:38:41;;;;;;;4.70;3.20;;;27.30;55.10;;;;;;4939604;29;20425;-82
2021/06/24 09:41:19;;;;;;;4.20;3.90;;;27.30;55.00;;;;;;4940204;29;20414;-82
2021/06/24 09:43:49;;;;;;;4.60;3.27;;;27.30;55.10;;;;;;4924971;29;20454;-82
2021/06/24 09:46:31;;;;;;;5.77;3.50;;;27.30;55.00;;;;;;4939922;29;20415;-83
2021/06/24 09:49:01;;;;;;;5.00;3.97;;;27.30;55.00;;;;;;4956653;29;20411;-82
2021/06/24 09:51:33;;;;;;;3.23;3.03;;;27.30;55.00;;;;;;4940106;29;20470;-82
2021/06/24 09:54:13;;;;;;;3.50;3.20;;;27.30;55.00;;;;;;4956916;29;20395;-82
2021/06/24 09:56:54;;;;;;;3.73;3.43;;;27.30;55.00;;;;;;4957144;29;20392;-82
2021/06/24 09:59:33;;;;;;;3.87;3.13;;;27.30;55.00;;;;;;4956845;29;20387;-83
2021/06/24 10:02:14;;;;;;;3.70;3.40;;;27.30;55.00;;;;;;4956385;29;20415;-83
2021/06/24 10:04:45;;;;;;;3.40;3.10;;;27.40;55.00;;;;;;4940793;29;21000;-83
2021/06/24 10:07:22;;;;;;;3.60;3.30;;;27.40;55.10;;;;;;4957194;29;20443;-83
2021/06/24 10:10:02;;;;;;;3.47;3.17;;;27.40;54.90;;;;;;4957582;29;20399;-82
2021/06/24 10:12:29;;;;;;;3.40;3.10;;;27.30;54.90;;;;;;4940034;29;20411;-82
2021/06/24 10:14:59;;;;;;;3.60;3.30;;;27.40;55.10;;;;;;4956882;29;20570;-81
2021/06/24 10:17:27;;;;;;;3.60;3.30;;;27.30;55.00;;;;;;4940022;29;20419;-82
2021/06/24 10:19:53;;;;;;;3.23;2.93;;;27.40;55.10;;;;;;4939304;29;20423;-82
2021/06/24 10:22:29;;;;;;;3.43;3.07;;;27.40;55.10;;;;;;4939120;29;20447;-82
2021/06/24 10:25:12;;;;;;;3.50;3.20;;;27.40;55.00;;;;;;4939833;29;20407;-83
2021/06/24 10:27:52;;;;;;;;;;;;;;;;;;;;;
2021/06/24 10:30:22;;;;;;;3.00;2.80;;;27.40;54.90;;;;;;4956326;29;20469;-83
2021/06/24 10:39:36;;;;;;;3.70;3.40;;;27.40;54.50;;;;;;4957055;29;20383;-82
2021/06/24 10:42:11;;;;;;;4.47;4.07;;;27.40;54.50;;;;;;4938885;29;20422;-83
2021/06/24 10:45:15;;;;;;;4.73;4.33;;;27.40;54.50;;;;;;4954624;29;20411;-83
2021/06/24 10:47:43;;;;;;;4.33;3.93;;;27.40;54.40;;;;;;4881116;29;20864;-83
2021/06/24 10:50:30;;;;;;;4.10;3.77;;;27.30;54.40;;;;;;4937594;29;20427;-82
2021/06/24 10:53:22;;;;;;;4.00;3.70;;;27.40;54.30;;;;;;4954111;29;20426;-82
2021/06/24 10:55:51;;;;;;;4.73;4.33;;;27.40;54.40;;;;;;4937731;29;20918;-82
2021/06/24 10:58:48;;;;;;;3.90;3.57;;;27.40;54.30;;;;;;4955542;29;20398;-82
2021/06/24 11:01:47;;;;;;;4.60;4.20;;;27.40;54.30;;;;;;4955845;29;20395;-82
2021/06/24 11:04:38;;;;;;;4.53;4.20;;;27.40;54.30;;;;;;4954418;29;20430;-82
2021/06/24 11:07:19;;;;;;;4.83;4.43;;;27.40;54.30;;;;;;4938043;29;20415;-83
2021/06/24 11:10:20;;;;;;;4.67;4.37;;;27.30;54.20;;;;;;4937117;29;20414;-82
2021/06/24 11:12:53;;;;;;;4.53;3.97;;;27.30;54.20;;;;;;4953179;29;20463;-83
2021/06/24 11:15:40;;;;;;;4.57;4.20;;;27.30;54.20;;;;;;4953983;29;20411;-83
2021/06/24 11:18:14;;;;;;;6.57;4.27;;;27.40;54.30;;;;;;4952268;29;20441;-83
2021/06/24 11:20:43;;;;;;;4.70;4.30;;;27.30;54.30;;;;;;4936793;29;20415;-83
2021/06/24 11:23:32;;;;;;;5.40;4.97;;;27.40;54.30;;;;;;4954477;29;20423;-84
2021/06/24 11:26:12;;;;;;;8.07;4.90;;;27.40;54.30;;;;;;4938357;29;20491;-86
2021/06/24 11:28:55;;;;;;;4.07;3.77;;;27.30;54.20;;;;;;4938631;29;20435;-84
2021/06/24 11:31:46;;;;;;;5.13;4.63;;;27.30;54.30;;;;;;4938826;29;20451;-83
2021/06/24 11:37:09;;;;;;;4.50;4.10;;;27.30;54.30;;;;;;4956232;29;20439;-83
2021/06/24 11:39:39;;;;;;;4.77;4.37;;;27.30;54.30;;;;;;4939034;29;20422;-87
2021/06/24 11:42:24;;;;;;;4.97;4.57;;;27.30;54.30;;;;;;4955973;29;20475;-83
2021/06/24 11:44:52;;;;;;;5.33;4.80;;;27.40;54.30;;;;;;4939942;29;20431;-83
2021/06/24 11:47:26;;;;;;;4.00;3.60;;;27.30;54.30;;;;;;4940144;29;20425;-84
2021/06/24 12:01:56;;;;;;;4.80;4.40;;;27.30;54.30;;;;;;4958234;29;20404;-83
2021/06/24 12:04:25;;;;;;;4.20;3.80;;;27.30;54.30;;;;;;4942354;29;20409;-83
2021/06/24 12:06:57;;;;;;;4.33;3.87;;;27.30;54.30;;;;;;4942116;29;20490;-83
2021/06/24 12:09:39;;;;;;;4.50;4.17;;;27.30;54.20;;;;;;4941589;29;20427;-83
2021/06/24 12:12:09;;;;;;;5.20;4.27;;;27.30;54.20;;;;;;4957134;29;20435;-83
2021/06/24 12:14:39;;;;;;;5.00;4.60;;;27.30;54.20;;;;;;4956316;29;20427;-83
2021/06/24 12:17:07;;;;;;;5.63;4.10;;;27.30;54.30;;;;;;4939883;29;20434;-83
2021/06/24 12:19:52;;;;;;;4.70;4.30;;;27.30;54.20;;;;;;4939398;29;20450;-84
2021/06/24 12:22:23;;;;;;;4.70;4.30;;;27.30;54.20;;;;;;4955101;29;20430;-83
2021/06/24 12:24:50;;;;;;;4.20;3.80;;;27.30;54.20;;;;;;4938673;29;20805;-83
2021/06/24 12:27:27;;;;;;;4.40;4.00;;;27.30;54.20;;;;;;4938887;29;20419;-82
2021/06/24 12:29:57;;;;;;;4.80;4.33;;;27.30;54.20;;;;;;4939360;29;20413;-83
2021/06/24 12:32:26;;;;;;;4.83;4.50;;;27.30;54.20;;;;;;4938350;29;20465;-83
2021/06/24 12:34:58;;;;;;;4.03;3.70;;;27.30;54.20;;;;;;4938607;29;20498;-82
2021/06/24 12:37:58;;;;;;;4.53;4.13;;;27.30;54.20;;;;;;4922689;29;20427;-83
2021/06/24 12:40:27;;;;;;;5.47;4.27;;;27.30;54.20;;;;;;4954363;29;20422;-82
2021/06/24 12:42:57;;;;;;;4.27;3.97;;;27.30;54.20;;;;;;4938581;29;20427;-83
2021/06/24 12:45:29;;;;;;;5.03;4.63;;;27.30;54.20;;;;;;4937408;29;20426;-83
2021/06/24 12:47:56;;;;;;;4.10;3.70;;;27.30;54.20;;;;;;4956116;29;20403;-83
2021/06/24 12:50:35;;;;;;;5.50;5.10;;;27.30;54.20;;;;;;4940718;29;20573;-82
2021/06/24 12:53:06;;;;;;;5.00;4.60;;;27.30;54.20;;;;;;4941235;29;20423;-82
2021/06/24 12:55:53;;;;;;;5.17;4.07;;;27.30;54.20;;;;;;4941118;29;20442;-83
2021/06/24 12:58:21;;;;;;;4.37;3.97;;;27.30;54.20;;;;;;4940227;29;20490;-83
2021/06/24 13:01:13;;;;;;;4.60;4.20;;;27.30;54.20;;;;;;4955825;29;20427;-83
2021/06/24 13:03:52;;;;;;;5.30;4.80;;;27.30;54.20;;;;;;4939569;29;20439;-84
2021/06/24 13:06:25;;;;;;;4.10;3.80;;;27.30;54.20;;;;;;4954517;29;20419;-84
2021/06/24 13:08:53;;;;;;;5.37;4.93;;;27.30;54.30;;;;;;4939529;29;20415;-82
2021/06/24 13:11:22;;;;;;;4.87;4.33;;;27.30;54.20;;;;;;4941100;29;20454;-83
2021/06/24 13:13:56;;;;;;;7.07;4.70;;;27.30;54.30;;;;;;4940034;29;20442;-83
2021/06/24 13:16:23;;;;;;;4.57;4.20;;;27.30;54.30;;;;;;4956999;29;20411;-82
2021/06/24 13:18:54;;;;;;;4.90;4.50;;;27.30;54.20;;;;;;4955753;29;20458;-83
2021/06/24 13:21:20;;;;;;;5.80;4.90;;;27.30;54.20;;;;;;4939553;29;20447;-83
2021/06/24 13:23:46;;;;;;;5.67;4.60;;;27.30;54.20;;;;;;4939784;29;20429;-83
2021/06/24 13:26:20;;;;;;;5.10;4.60;;;27.30;54.20;;;;;;4939412;29;20422;-82
2021/06/24 13:29:04;;;;;;;4.80;4.40;;;27.40;54.30;;;;;;4954059;29;20920;-83
2021/06/24 13:31:34;;;;;;;5.40;4.60;;;27.40;54.30;;;;;;4937917;29;20550;-83
2021/06/24 13:34:12;;;;;;;6.27;4.80;;;27.40;54.40;;;;;;4954760;29;20410;-83
2021/06/24 13:36:39;;;;;;;5.27;4.77;;;27.40;54.40;;;;;;4938313;29;20422;-82
2021/06/24 13:39:08;;;;;;;5.40;5.00;;;27.30;54.30;;;;;;4938134;29;20426;-83
2021/06/24 13:41:35;;;;;;;4.87;4.47;;;27.30;54.30;;;;;;4937995;29;20427;-83
2021/06/24 13:44:11;;;;;;;4.80;4.40;;;27.30;54.30;;;;;;4954439;29;20486;-81
2021/06/24 13:46:41;;;;;;;4.77;4.33;;;27.40;54.30;;;;;;4937653;29;20418;-82
2021/06/24 13:49:10;;;;;;;7.10;5.03;;;27.40;54.30;;;;;;4937678;29;20433;-81
2021/06/24 13:57:34;;;;;;;5.07;4.47;;;27.40;54.40;;;;;;5267813;23;20507;-82
2021/06/24 13:59:59;;;;;;;5.80;5.20;;;27.40;54.40;;;;;;4956734;29;20513;-81
2021/06/24 14:02:25;;;;;;;5.87;4.80;;;27.40;54.40;;;;;;4953315;29;20613;-81
2021/06/24 14:04:51;;;;;;;5.03;4.63;;;27.40;54.50;;;;;;4947976;29;20222;-81
2021/06/24 14:07:22;;;;;;;5.43;4.93;;;27.40;54.50;;;;;;4947615;29;20227;-81
2021/06/24 14:09:51;;;;;;;6.03;4.97;;;27.40;54.40;;;;;;4949786;29;20426;-80
2021/06/24 14:12:17;;;;;;;5.87;5.37;;;27.40;54.40;;;;;;4949318;29;20454;-81
2021/06/24 14:14:43;;;;;;;5.30;4.80;;;27.50;54.40;;;;;;4967193;29;20414;-79
2021/06/24 14:17:09;;;;;;;5.40;5.00;;;27.40;54.30;;;;;;4944638;29;20449;-81
2021/06/24 14:19:35;;;;;;;5.97;5.37;;;27.50;54.40;;;;;;4970014;29;20194;-81
2021/06/24 14:22:06;;;;;;;5.57;5.00;;;27.50;54.40;;;;;;4953313;29;20250;-82
2021/06/24 14:31:06;;;;;;;6.20;5.47;;;27.50;54.40;;;;;;5460750;23;21527;-83
2021/06/24 14:36:08;;;;;;;5.67;5.13;;;27.50;54.50;;;;;;5183101;23;20486;-82
2021/06/24 14:52:36;;;;;;;5.47;4.93;;;27.50;54.40;;;;;;5025970;23;20526;-81
2021/06/24 15:03:04;;;;;;;;;;;;;;;;;;;;;
2021/06/24 15:08:08;;;;;;;4.80;4.40;;;27.50;54.30;;;;;;5249051;23;20478;-82
2021/06/24 15:15:47;;;;;;;5.90;5.30;;;27.50;54.20;;;;;;6045402;23;20401;-80
2021/06/24 15:18:19;;;;;;;5.37;4.87;;;27.60;54.30;;;;;;4941800;29;20467;-81
2021/06/24 15:21:33;;;;;;;5.40;4.90;;;27.60;54.30;;;;;;4941612;29;20400;-83
2021/06/24 15:31:48;;;;;;;6.20;5.70;;;27.50;54.30;;;;;;4792875;27;20491;-82
2021/06/24 15:37:20;;;;;;;5.63;5.23;;;27.60;54.30;;;;;;4977508;23;20574;-81
2021/06/24 15:39:56;;;;;;;6.37;4.97;;;27.60;54.30;;;;;;4939863;29;20442;-82
2021/06/24 15:42:25;;;;;;;5.40;5.00;;;27.60;54.30;;;;;;4933407;29;20431;-81
2021/06/24 15:44:53;;;;;;;5.70;5.20;;;27.60;54.30;;;;;;4923296;29;20428;-81
2021/06/24 15:47:25;;;;;;;5.70;5.20;;;27.60;54.30;;;;;;4907086;29;20451;-81
2021/06/24 15:49:54;;;;;;;5.40;5.00;;;27.60;54.30;;;;;;4939159;29;20404;-81
2021/06/24 15:52:56;;;;;;;5.20;4.70;;;27.60;54.30;;;;;;4923492;29;20464;-83
2021/06/24 15:55:41;;;;;;;6.43;5.30;;;27.60;54.20;;;;;;4935802;29;20407;-82
2021/06/24 16:05:07;;;;;;;6.40;5.80;;;27.60;54.20;;;;;;4906719;29;20414;-84
2021/06/24 16:14:26;;;;;;;7.10;4.97;;;27.60;54.20;;;;;;4874195;29;20404;-82
2021/06/24 16:17:04;;;;;;;5.50;5.00;;;27.50;54.20;;;;;;4876505;29;20427;-81
2021/06/24 16:19:36;;;;;;;5.63;4.90;;;27.60;54.20;;;;;;4882070;29;20411;-80
2021/06/24 16:22:09;;;;;;;5.07;4.57;;;27.60;54.20;;;;;;4880683;29;20427;-82
2021/06/24 16:24:41;;;;;;;5.90;5.30;;;27.60;54.20;;;;;;4877389;29;20434;-81
2021/06/24 16:27:09;;;;;;;5.00;4.50;;;27.60;54.30;;;;;;4878293;29;20459;-81
2021/06/24 16:29:46;;;;;;;5.23;4.73;;;27.60;54.20;;;;;;4879964;29;20430;-81
2021/06/24 16:32:14;;;;;;;6.20;5.60;;;27.60;54.20;;;;;;4879601;29;20462;-81
2021/06/24 16:38:05;;;;;;;5.87;5.37;;;27.60;54.10;;;;;;4879489;29;20494;-80
2021/06/24 16:40:31;;;;;;;5.53;5.03;;;27.60;54.20;;;;;;4879355;29;20458;-81
2021/06/24 16:43:01;;;;;;;5.27;4.83;;;27.60;54.20;;;;;;4878284;29;20430;-81
2021/06/24 16:45:27;;;;;;;5.70;5.10;;;27.60;54.20;;;;;;4878005;29;20426;-80
2021/06/24 16:47:56;;;;;;;5.33;4.83;;;27.60;54.20;;;;;;4897933;29;20444;-80
2021/06/24 16:50:28;;;;;;;5.67;5.07;;;27.60;54.10;;;;;;4917450;29;20439;-82
2021/06/24 16:52:56;;;;;;;5.90;5.30;;;27.60;54.10;;;;;;4918225;29;20430;-81
2021/06/24 16:55:34;;;;;;;6.57;4.73;;;27.60;54.10;;;;;;4934949;29;20412;-82
2021/06/24 16:58:07;;;;;;;7.03;5.57;;;27.60;54.10;;;;;;4917978;29;20492;-82
2021/06/24 17:00:36;;;;;;;9.17;5.50;;;27.60;54.10;;;;;;4918400;29;20431;-82
2021/06/24 17:03:04;;;;;;;5.60;5.10;;;27.60;54.20;;;;;;4919262;29;20424;-82
2021/06/24 17:05:41;;;;;;;5.83;5.33;;;27.60;54.10;;;;;;4917392;29;20444;-82
2021/06/24 17:08:07;;;;;;;5.60;5.07;;;27.60;54.10;;;;;;4917791;29;20431;-81
2021/06/24 17:10:36;;;;;;;5.63;5.23;;;27.60;54.20;;;;;;4918501;29;20466;-82
2021/06/24 17:13:08;;;;;;;5.97;4.90;;;27.60;54.20;;;;;;4918900;29;20419;-82